Terminal Aerodrome Forecast
Issued by NWS

Home | Current Version | Previous Version | Text Only | Print | Product List | Glossary On
Versions: 1 2 3 4 5 6 7 8 9 10 11 12 13
404
FTAK31 PAJN 202320
TAFAPG
TAF
PAPG 202320Z 2100/2124 07004KT P6SM FEW035
     FM210200 23004KT P6SM FEW040
     FM211800 VRB04KT P6SM SCT040 BKN110
      AMD LTD TO CLD VIS AND WIND 2106/2115=

USA.gov is the U.S. government's official web portal to all federal, state and local government web resources and services.